DWD Radarbild

   
[Quelle: ADDS]
METAR
EDLP 240550Z 28011KT 230V320 9000 -RA SCT005 BKN008 OVC015 12/11 Q1018 =
EDLP 240500Z 2406/2506 29013KT 6000 BKN012 PROB30 TEMPO 2406/2408 30015G25KT TEMPO 2406/2506 2000 DZ BKN004 BECMG 2412/2415 27008KT
TAF
EDLP 240500Z 2406/2506 29013KT 6000 BKN012 PROB30 TEMPO 2406/2408 30015G25KT TEMPO 2406/2506 2000 DZ BKN004 BECMG 2412/2415 27008KT =
   
   

Meine WettercamWettercam aus Bielefeld Senne - Blickrichtung Süd-Ostjede Min. ein neues Bild

   
Moon phase
Phase:
Vollmond

Mondphase:
100%

Alter:
14 Tage

Entfernung:
241,150 Km

Zeit:
08:04:25

Datum:
24-10-2018

   
<<  Okt 2018  >>
 Mo  Di  Mi  Do  Fr  Sa  So 
  1  2  3  4  5  6  7
  8  91011121314
15161718192021
22232425262728
293031